sensor_id;sensor_type;location;lat;lon;timestamp;pressure;altitude;pressure_sealevel;temperature;humidity
50364;BME280;36272;59.400;17.982;2023-04-25T00:01:07;100016.47;;;7.20;74.52
50364;BME280;36272;59.400;17.982;2023-04-25T00:06:10;100019.34;;;7.18;74.64
50364;BME280;36272;59.400;17.982;2023-04-25T00:11:11;100013.22;;;7.18;74.34
50364;BME280;36272;59.400;17.982;2023-04-25T00:16:13;100013.22;;;7.18;74.31
50364;BME280;36272;59.400;17.982;2023-04-25T00:21:18;99988.44;;;7.17;74.32
50364;BME280;36272;59.400;17.982;2023-04-25T00:26:21;100004.84;;;7.14;74.83
50364;BME280;36272;59.400;17.982;2023-04-25T00:31:22;99994.63;;;7.11;74.81
50364;BME280;36272;59.400;17.982;2023-04-25T00:36:24;100001.41;;;7.07;74.88
50364;BME280;36272;59.400;17.982;2023-04-25T00:41:27;99988.34;;;7.05;75.67
50364;BME280;36272;59.400;17.982;2023-04-25T00:46:28;99989.59;;;7.03;76.18
50364;BME280;36272;59.400;17.982;2023-04-25T00:51:34;99978.78;;;6.97;76.12
50364;BME280;36272;59.400;17.982;2023-04-25T00:56:36;100001.53;;;6.93;76.04
50364;BME280;36272;59.400;17.982;2023-04-25T01:01:41;99982.75;;;6.88;76.48
50364;BME280;36272;59.400;17.982;2023-04-25T01:06:49;99973.78;;;6.82;76.46
50364;BME280;36272;59.400;17.982;2023-04-25T01:11:52;99985.47;;;6.81;76.36
50364;BME280;36272;59.400;17.982;2023-04-25T01:16:53;99969.09;;;6.78;76.32
50364;BME280;36272;59.400;17.982;2023-04-25T01:21:56;99956.31;;;6.68;76.77
50364;BME280;36272;59.400;17.982;2023-04-25T01:26:58;99934.63;;;6.64;76.94
50364;BME280;36272;59.400;17.982;2023-04-25T01:32:02;99933.91;;;6.57;76.92
50364;BME280;36272;59.400;17.982;2023-04-25T01:37:04;99923.72;;;6.47;76.98
50364;BME280;36272;59.400;17.982;2023-04-25T01:42:06;99916.22;;;6.37;77.19
50364;BME280;36272;59.400;17.982;2023-04-25T01:47:08;99912.16;;;6.35;77.36
50364;BME280;36272;59.400;17.982;2023-04-25T01:52:09;99906.25;;;6.33;77.37
50364;BME280;36272;59.400;17.982;2023-04-25T01:57:11;99910.34;;;6.29;77.56
50364;BME280;36272;59.400;17.982;2023-04-25T02:02:13;99900.97;;;6.26;77.86
50364;BME280;36272;59.400;17.982;2023-04-25T02:07:15;99936.72;;;6.23;77.79
50364;BME280;36272;59.400;17.982;2023-04-25T02:12:17;99932.66;;;6.21;77.91
50364;BME280;36272;59.400;17.982;2023-04-25T02:17:19;99893.25;;;6.18;77.95
50364;BME280;36272;59.400;17.982;2023-04-25T02:22:20;99890.81;;;6.16;78.08
50364;BME280;36272;59.400;17.982;2023-04-25T02:27:22;99885.91;;;6.13;78.29
50364;BME280;36272;59.400;17.982;2023-04-25T02:32:24;99895.34;;;6.09;78.44
50364;BME280;36272;59.400;17.982;2023-04-25T02:37:25;99874.91;;;6.09;78.39
50364;BME280;36272;59.400;17.982;2023-04-25T02:42:27;99859.41;;;6.06;78.58
50364;BME280;36272;59.400;17.982;2023-04-25T02:47:29;99860.22;;;6.07;78.67
50364;BME280;36272;59.400;17.982;2023-04-25T02:52:31;99844.28;;;6.07;78.85
50364;BME280;36272;59.400;17.982;2023-04-25T02:57:32;99841.44;;;6.08;78.70
50364;BME280;36272;59.400;17.982;2023-04-25T03:02:34;99824.91;;;6.06;78.68
50364;BME280;36272;59.400;17.982;2023-04-25T03:07:36;99828.78;;;6.04;78.96
50364;BME280;36272;59.400;17.982;2023-04-25T03:12:38;99809.59;;;6.02;79.18
50364;BME280;36272;59.400;17.982;2023-04-25T03:17:40;99812.84;;;6.04;79.51
50364;BME280;36272;59.400;17.982;2023-04-25T03:22:41;99798.13;;;6.08;79.20
50364;BME280;36272;59.400;17.982;2023-04-25T03:27:43;99794.06;;;6.05;79.28
50364;BME280;36272;59.400;17.982;2023-04-25T03:32:47;99784.06;;;6.01;79.38
50364;BME280;36272;59.400;17.982;2023-04-25T03:37:48;99791.59;;;6.04;79.19
50364;BME280;36272;59.400;17.982;2023-04-25T03:42:53;99782.63;;;6.05;79.55
50364;BME280;36272;59.400;17.982;2023-04-25T03:47:54;99795.47;;;6.08;79.55
50364;BME280;36272;59.400;17.982;2023-04-25T03:52:56;99788.94;;;6.10;79.44
50364;BME280;36272;59.400;17.982;2023-04-25T03:58:01;99774.81;;;6.10;79.76
50364;BME280;36272;59.400;17.982;2023-04-25T04:03:02;99774.81;;;6.10;79.30
50364;BME280;36272;59.400;17.982;2023-04-25T04:08:04;99754.44;;;6.04;79.52
50364;BME280;36272;59.400;17.982;2023-04-25T04:13:06;99745.88;;;6.02;79.50
50364;BME280;36272;59.400;17.982;2023-04-25T04:18:08;99734.03;;;6.04;79.15
50364;BME280;36272;59.400;17.982;2023-04-25T04:23:09;99743.81;;;6.04;79.38
50364;BME280;36272;59.400;17.982;2023-04-25T04:28:12;99728.13;;;6.02;79.53
50364;BME280;36272;59.400;17.982;2023-04-25T04:33:14;99731.81;;;6.01;79.92
50364;BME280;36272;59.400;17.982;2023-04-25T04:38:16;99747.91;;;6.06;79.85
50364;BME280;36272;59.400;17.982;2023-04-25T04:43:18;99753.59;;;6.10;79.82
50364;BME280;36272;59.400;17.982;2023-04-25T04:48:20;99758.47;;;6.13;79.72
50364;BME280;36272;59.400;17.982;2023-04-25T04:53:24;99763.34;;;6.16;79.67
50364;BME280;36272;59.400;17.982;2023-04-25T04:58:26;99769.19;;;6.25;79.74
50364;BME280;36272;59.400;17.982;2023-04-25T05:03:30;99752.63;;;6.30;79.99
50364;BME280;36272;59.400;17.982;2023-04-25T05:08:32;99750.56;;;6.32;80.03
50364;BME280;36272;59.400;17.982;2023-04-25T05:13:52;99725.41;;;6.34;80.43
50364;BME280;36272;59.400;17.982;2023-04-25T05:18:54;99739.06;;;6.38;80.00
50364;BME280;36272;59.400;17.982;2023-04-25T05:23:58;99717.16;;;6.43;79.87
50364;BME280;36272;59.400;17.982;2023-04-25T05:29:03;99723.06;;;6.45;79.78
50364;BME280;36272;59.400;17.982;2023-04-25T05:34:06;99708.31;;;6.49;79.93
50364;BME280;36272;59.400;17.982;2023-04-25T05:39:21;99706.03;;;6.52;80.18
50364;BME280;36272;59.400;17.982;2023-04-25T05:44:22;99711.50;;;6.58;80.08
50364;BME280;36272;59.400;17.982;2023-04-25T05:49:24;99718.59;;;6.64;80.20
50364;BME280;36272;59.400;17.982;2023-04-25T05:54:26;99713.44;;;6.69;79.97
50364;BME280;36272;59.400;17.982;2023-04-25T05:59:28;99714.81;;;6.72;80.11
50364;BME280;36272;59.400;17.982;2023-04-25T06:04:29;99717.88;;;6.75;79.88
50364;BME280;36272;59.400;17.982;2023-04-25T06:09:31;99719.16;;;6.84;79.96
50364;BME280;36272;59.400;17.982;2023-04-25T06:14:33;99710.91;;;6.93;79.88
50364;BME280;36272;59.400;17.982;2023-04-25T06:19:36;99698.13;;;7.02;79.89
50364;BME280;36272;59.400;17.982;2023-04-25T06:24:37;99701.75;;;7.07;79.88
50364;BME280;36272;59.400;17.982;2023-04-25T06:29:42;99703.38;;;7.08;79.99
50364;BME280;36272;59.400;17.982;2023-04-25T06:34:53;99707.66;;;7.09;80.22
50364;BME280;36272;59.400;17.982;2023-04-25T06:39:54;99720.84;;;7.16;80.27
50364;BME280;36272;59.400;17.982;2023-04-25T06:44:56;99704.00;;;7.22;80.27
50364;BME280;36272;59.400;17.982;2023-04-25T06:50:00;99700.22;;;7.30;80.26
50364;BME280;36272;59.400;17.982;2023-04-25T06:55:02;99709.50;;;7.39;80.02
50364;BME280;36272;59.400;17.982;2023-04-25T07:00:06;99706.78;;;7.46;80.12
50364;BME280;36272;59.400;17.982;2023-04-25T07:05:10;99716.03;;;7.55;79.65
50364;BME280;36272;59.400;17.982;2023-04-25T07:10:12;99729.47;;;7.61;79.94
50364;BME280;36272;59.400;17.982;2023-04-25T07:15:13;99729.41;;;7.67;79.87
50364;BME280;36272;59.400;17.982;2023-04-25T07:20:15;99724.31;;;7.78;79.91
50364;BME280;36272;59.400;17.982;2023-04-25T07:25:17;99726.22;;;7.89;79.92
50364;BME280;36272;59.400;17.982;2023-04-25T07:30:19;99728.56;;;7.97;79.88
50364;BME280;36272;59.400;17.982;2023-04-25T07:35:23;99738.88;;;8.06;79.71
50364;BME280;36272;59.400;17.982;2023-04-25T07:40:25;99734.25;;;8.13;79.23
50364;BME280;36272;59.400;17.982;2023-04-25T07:45:27;99740.16;;;8.15;79.49
50364;BME280;36272;59.400;17.982;2023-04-25T07:50:34;99729.03;;;8.18;79.27
50364;BME280;36272;59.400;17.982;2023-04-25T07:55:36;99739.59;;;8.25;79.13
50364;BME280;36272;59.400;17.982;2023-04-25T08:00:41;99733.81;;;8.40;78.72
50364;BME280;36272;59.400;17.982;2023-04-25T08:06:00;99742.88;;;8.51;78.65
50364;BME280;36272;59.400;17.982;2023-04-25T08:11:02;99745.53;;;8.62;78.78
50364;BME280;36272;59.400;17.982;2023-04-25T08:16:03;99739.97;;;8.76;78.41
50364;BME280;36272;59.400;17.982;2023-04-25T08:21:05;99740.97;;;8.87;78.14
50364;BME280;36272;59.400;17.982;2023-04-25T08:26:08;99750.59;;;9.00;78.05
50364;BME280;36272;59.400;17.982;2023-04-25T08:31:12;99743.66;;;8.99;77.83
50364;BME280;36272;59.400;17.982;2023-04-25T08:36:14;99763.22;;;9.04;78.01
50364;BME280;36272;59.400;17.982;2023-04-25T08:41:16;99756.03;;;9.17;77.90
50364;BME280;36272;59.400;17.982;2023-04-25T08:46:19;99761.22;;;9.23;77.56
50364;BME280;36272;59.400;17.982;2023-04-25T08:51:22;99757.94;;;9.33;77.54
50364;BME280;36272;59.400;17.982;2023-04-25T08:56:27;99766.28;;;9.66;76.53
50364;BME280;36272;59.400;17.982;2023-04-25T09:01:28;99778.84;;;9.53;76.62
50364;BME280;36272;59.400;17.982;2023-04-25T09:06:31;99760.63;;;9.62;77.14
50364;BME280;36272;59.400;17.982;2023-04-25T09:11:34;99764.44;;;9.66;76.90
50364;BME280;36272;59.400;17.982;2023-04-25T09:22:01;99775.25;;;9.89;76.23
50364;BME280;36272;59.400;17.982;2023-04-25T09:27:11;99782.94;;;10.02;76.24
50364;BME280;36272;59.400;17.982;2023-04-25T09:32:22;99774.22;;;10.07;75.99
50364;BME280;36272;59.400;17.982;2023-04-25T09:37:26;99778.44;;;10.20;75.70
50364;BME280;36272;59.400;17.982;2023-04-25T09:42:28;99794.31;;;10.44;75.24
50364;BME280;36272;59.400;17.982;2023-04-25T09:47:37;99780.16;;;10.60;75.52
50364;BME280;36272;59.400;17.982;2023-04-25T09:52:45;99791.72;;;10.66;74.71
50364;BME280;36272;59.400;17.982;2023-04-25T09:57:49;99782.63;;;10.67;75.08
50364;BME280;36272;59.400;17.982;2023-04-25T10:02:56;99806.78;;;10.72;74.66
50364;BME280;36272;59.400;17.982;2023-04-25T10:08:02;99804.84;;;10.84;74.37
50364;BME280;36272;59.400;17.982;2023-04-25T10:13:05;99811.78;;;11.03;74.21
50364;BME280;36272;59.400;17.982;2023-04-25T10:18:08;99808.97;;;11.14;73.92
50364;BME280;36272;59.400;17.982;2023-04-25T10:23:13;99808.34;;;11.29;74.52
50364;BME280;36272;59.400;17.982;2023-04-25T10:28:16;99826.38;;;11.56;73.88
50364;BME280;36272;59.400;17.982;2023-04-25T10:33:18;99832.13;;;11.70;73.07
50364;BME280;36272;59.400;17.982;2023-04-25T10:38:20;99845.88;;;11.79;72.60
50364;BME280;36272;59.400;17.982;2023-04-25T10:43:43;99838.25;;;11.66;72.53
50364;BME280;36272;59.400;17.982;2023-04-25T10:48:56;99839.19;;;11.54;72.90
50364;BME280;36272;59.400;17.982;2023-04-25T10:54:00;99834.84;;;11.48;72.85
50364;BME280;36272;59.400;17.982;2023-04-25T10:59:12;99836.94;;;11.46;72.96
50364;BME280;36272;59.400;17.982;2023-04-25T11:04:33;99835.47;;;11.55;73.10
50364;BME280;36272;59.400;17.982;2023-04-25T11:09:52;99839.88;;;11.67;72.54
50364;BME280;36272;59.400;17.982;2023-04-25T11:15:04;99843.66;;;11.71;72.70
50364;BME280;36272;59.400;17.982;2023-04-25T11:20:07;99852.38;;;11.83;72.27
50364;BME280;36272;59.400;17.982;2023-04-25T11:25:14;99852.88;;;11.80;71.97
50364;BME280;36272;59.400;17.982;2023-04-25T11:30:17;99855.47;;;11.75;72.10
50364;BME280;36272;59.400;17.982;2023-04-25T11:35:20;99873.72;;;11.78;72.27
50364;BME280;36272;59.400;17.982;2023-04-25T11:40:24;99870.25;;;11.78;72.23
50364;BME280;36272;59.400;17.982;2023-04-25T11:45:26;99856.09;;;11.82;72.16
50364;BME280;36272;59.400;17.982;2023-04-25T11:50:28;99867.66;;;11.83;72.06
50364;BME280;36272;59.400;17.982;2023-04-25T11:55:30;99862.53;;;11.81;72.63
50364;BME280;36272;59.400;17.982;2023-04-25T12:00:32;99867.16;;;11.86;72.33
50364;BME280;36272;59.400;17.982;2023-04-25T12:05:33;99876.25;;;11.85;72.57
50364;BME280;36272;59.400;17.982;2023-04-25T12:10:38;99860.91;;;11.80;72.66
50364;BME280;36272;59.400;17.982;2023-04-25T12:15:41;99866.81;;;11.82;72.46
50364;BME280;36272;59.400;17.982;2023-04-25T12:20:43;99863.69;;;11.90;72.41
50364;BME280;36272;59.400;17.982;2023-04-25T12:25:44;99865.63;;;11.95;72.49
50364;BME280;36272;59.400;17.982;2023-04-25T12:35:57;99866.88;;;12.10;72.39
50364;BME280;36272;59.400;17.982;2023-04-25T12:40:59;99877.09;;;12.13;72.34
50364;BME280;36272;59.400;17.982;2023-04-25T12:46:04;99851.63;;;12.10;72.45
50364;BME280;36272;59.400;17.982;2023-04-25T12:51:05;99866.38;;;12.13;72.55
50364;BME280;36272;59.400;17.982;2023-04-25T12:56:08;99850.00;;;12.09;72.67
50364;BME280;36272;59.400;17.982;2023-04-25T13:01:09;99862.41;;;12.20;72.36
50364;BME280;36272;59.400;17.982;2023-04-25T13:06:11;99864.63;;;12.29;72.37
50364;BME280;36272;59.400;17.982;2023-04-25T13:11:14;99863.91;;;12.39;72.34
50364;BME280;36272;59.400;17.982;2023-04-25T13:16:19;99856.28;;;12.53;72.05
50364;BME280;36272;59.400;17.982;2023-04-25T13:21:22;99857.19;;;12.69;71.83
50364;BME280;36272;59.400;17.982;2023-04-25T13:26:23;99850.84;;;12.85;71.49
50364;BME280;36272;59.400;17.982;2023-04-25T13:31:25;99854.47;;;13.01;71.36
50364;BME280;36272;59.400;17.982;2023-04-25T13:36:27;99859.38;;;13.15;71.06
50364;BME280;36272;59.400;17.982;2023-04-25T13:41:29;99840.91;;;13.23;70.64
50364;BME280;36272;59.400;17.982;2023-04-25T13:46:30;99848.97;;;13.23;70.90
50364;BME280;36272;59.400;17.982;2023-04-25T13:51:32;99846.56;;;13.27;70.93
50364;BME280;36272;59.400;17.982;2023-04-25T13:56:34;99847.91;;;13.30;70.63
50364;BME280;36272;59.400;17.982;2023-04-25T14:01:36;99854.56;;;13.22;70.68
50364;BME280;36272;59.400;17.982;2023-04-25T14:06:38;99850.31;;;13.26;71.11
50364;BME280;36272;59.400;17.982;2023-04-25T14:11:41;99829.16;;;13.40;71.57
50364;BME280;36272;59.400;17.982;2023-04-25T14:16:50;99831.94;;;13.56;71.38
50364;BME280;36272;59.400;17.982;2023-04-25T14:21:52;99827.38;;;13.66;71.51
50364;BME280;36272;59.400;17.982;2023-04-25T14:26:54;99822.06;;;13.77;70.99
50364;BME280;36272;59.400;17.982;2023-04-25T14:31:56;99819.38;;;13.82;71.25
50364;BME280;36272;59.400;17.982;2023-04-25T14:36:58;99817.25;;;13.84;71.17
50364;BME280;36272;59.400;17.982;2023-04-25T14:42:01;99801.91;;;13.85;71.23
50364;BME280;36272;59.400;17.982;2023-04-25T14:47:03;99814.53;;;13.79;71.31
50364;BME280;36272;59.400;17.982;2023-04-25T14:52:05;99825.81;;;13.76;71.15
50364;BME280;36272;59.400;17.982;2023-04-25T14:57:06;99826.06;;;13.74;71.69
50364;BME280;36272;59.400;17.982;2023-04-25T15:02:09;99821.00;;;13.88;71.30
50364;BME280;36272;59.400;17.982;2023-04-25T15:07:13;99813.22;;;14.02;71.02
50364;BME280;36272;59.400;17.982;2023-04-25T15:12:15;99817.53;;;13.98;70.91
50364;BME280;36272;59.400;17.982;2023-04-25T15:17:16;99818.59;;;13.92;71.24
50364;BME280;36272;59.400;17.982;2023-04-25T15:22:20;99806.22;;;13.91;71.24
50364;BME280;36272;59.400;17.982;2023-04-25T15:27:22;99820.47;;;14.02;71.05
50364;BME280;36272;59.400;17.982;2023-04-25T15:32:24;99818.09;;;14.10;70.84
50364;BME280;36272;59.400;17.982;2023-04-25T15:37:26;99825.91;;;14.27;69.73
50364;BME280;36272;59.400;17.982;2023-04-25T15:42:28;99824.81;;;14.34;68.45
50364;BME280;36272;59.400;17.982;2023-04-25T15:47:29;99836.38;;;14.34;67.87
50364;BME280;36272;59.400;17.982;2023-04-25T15:52:32;99836.66;;;14.22;67.15
50364;BME280;36272;59.400;17.982;2023-04-25T15:57:34;99831.75;;;13.88;66.80
50364;BME280;36272;59.400;17.982;2023-04-25T16:02:49;99829.56;;;13.70;67.05
50364;BME280;36272;59.400;17.982;2023-04-25T16:07:52;99823.66;;;13.78;67.50
50364;BME280;36272;59.400;17.982;2023-04-25T16:12:54;99846.69;;;13.53;66.67
50364;BME280;36272;59.400;17.982;2023-04-25T16:17:55;99852.50;;;13.34;66.77
50364;BME280;36272;59.400;17.982;2023-04-25T16:22:57;99851.06;;;13.16;67.16
50364;BME280;36272;59.400;17.982;2023-04-25T16:28:03;99848.47;;;12.89;67.42
50364;BME280;36272;59.400;17.982;2023-04-25T16:33:04;99865.03;;;12.75;67.75
50364;BME280;36272;59.400;17.982;2023-04-25T16:38:08;99842.03;;;12.52;68.03
50364;BME280;36272;59.400;17.982;2023-04-25T16:43:10;99850.03;;;12.47;67.99
50364;BME280;36272;59.400;17.982;2023-04-25T16:48:12;99851.84;;;12.36;68.62
50364;BME280;36272;59.400;17.982;2023-04-25T16:53:18;99831.91;;;12.27;68.44
50364;BME280;36272;59.400;17.982;2023-04-25T16:58:23;99858.16;;;12.25;68.40
50364;BME280;36272;59.400;17.982;2023-04-25T17:03:27;99851.63;;;12.15;68.59
50364;BME280;36272;59.400;17.982;2023-04-25T17:08:29;99848.81;;;12.00;68.58
50364;BME280;36272;59.400;17.982;2023-04-25T17:13:31;99851.13;;;11.91;69.22
50364;BME280;36272;59.400;17.982;2023-04-25T17:18:33;99862.56;;;11.86;69.19
50364;BME280;36272;59.400;17.982;2023-04-25T17:23:35;99866.03;;;11.82;69.38
50364;BME280;36272;59.400;17.982;2023-04-25T17:28:37;99858.22;;;11.80;69.55
50364;BME280;36272;59.400;17.982;2023-04-25T17:33:42;99863.28;;;11.77;69.61
50364;BME280;36272;59.400;17.982;2023-04-25T17:38:48;99865.06;;;11.71;69.78
50364;BME280;36272;59.400;17.982;2023-04-25T17:43:50;99867.22;;;11.69;69.70
50364;BME280;36272;59.400;17.982;2023-04-25T17:48:52;99862.88;;;11.63;69.93
50364;BME280;36272;59.400;17.982;2023-04-25T17:53:53;99867.66;;;11.60;70.08
50364;BME280;36272;59.400;17.982;2023-04-25T17:58:55;99864.91;;;11.55;70.31
50364;BME280;36272;59.400;17.982;2023-04-25T18:03:57;99861.13;;;11.51;70.39
50364;BME280;36272;59.400;17.982;2023-04-25T18:09:17;99865.34;;;11.47;70.77
50364;BME280;36272;59.400;17.982;2023-04-25T18:14:23;99867.47;;;11.45;70.63
50364;BME280;36272;59.400;17.982;2023-04-25T18:19:31;99850.75;;;11.38;70.93
50364;BME280;36272;59.400;17.982;2023-04-25T18:24:32;99872.66;;;11.35;71.15
50364;BME280;36272;59.400;17.982;2023-04-25T18:29:34;99866.44;;;11.29;71.30
50364;BME280;36272;59.400;17.982;2023-04-25T18:34:37;99873.91;;;11.27;71.40
50364;BME280;36272;59.400;17.982;2023-04-25T18:39:50;99881.09;;;11.21;71.58
50364;BME280;36272;59.400;17.982;2023-04-25T18:44:52;99879.63;;;11.13;71.63
50364;BME280;36272;59.400;17.982;2023-04-25T18:49:54;99880.38;;;11.09;72.08
50364;BME280;36272;59.400;17.982;2023-04-25T18:54:55;99888.31;;;11.04;72.21
50364;BME280;36272;59.400;17.982;2023-04-25T19:00:06;99880.47;;;10.97;72.10
50364;BME280;36272;59.400;17.982;2023-04-25T19:05:09;99889.78;;;10.94;72.40
50364;BME280;36272;59.400;17.982;2023-04-25T19:10:11;99900.41;;;10.89;72.28
50364;BME280;36272;59.400;17.982;2023-04-25T19:15:12;99898.69;;;10.83;72.75
50364;BME280;36272;59.400;17.982;2023-04-25T19:20:14;99892.22;;;10.79;72.82
50364;BME280;36272;59.400;17.982;2023-04-25T19:25:16;99895.31;;;10.70;72.80
50364;BME280;36272;59.400;17.982;2023-04-25T19:30:18;99894.97;;;10.67;73.21
50364;BME280;36272;59.400;17.982;2023-04-25T19:35:20;99898.38;;;10.62;73.13
50364;BME280;36272;59.400;17.982;2023-04-25T19:40:22;99902.00;;;10.56;73.29
50364;BME280;36272;59.400;17.982;2023-04-25T19:45:23;99901.69;;;10.52;73.77
50364;BME280;36272;59.400;17.982;2023-04-25T19:50:48;99884.75;;;10.47;74.24
50364;BME280;36272;59.400;17.982;2023-04-25T19:55:51;99905.06;;;10.48;74.03
50364;BME280;36272;59.400;17.982;2023-04-25T20:00:53;99900.22;;;10.45;74.21
50364;BME280;36272;59.400;17.982;2023-04-25T20:05:56;99899.31;;;10.39;74.33
50364;BME280;36272;59.400;17.982;2023-04-25T20:11:01;99886.09;;;10.32;74.10
50364;BME280;36272;59.400;17.982;2023-04-25T20:16:03;99898.31;;;10.28;74.31
50364;BME280;36272;59.400;17.982;2023-04-25T20:21:05;99895.53;;;10.23;74.48
50364;BME280;36272;59.400;17.982;2023-04-25T20:26:08;99902.63;;;10.17;74.45
50364;BME280;36272;59.400;17.982;2023-04-25T20:31:10;99890.00;;;10.12;74.36
50364;BME280;36272;59.400;17.982;2023-04-25T20:36:11;99898.00;;;10.12;74.40
50364;BME280;36272;59.400;17.982;2023-04-25T20:41:15;99889.09;;;10.07;74.73
50364;BME280;36272;59.400;17.982;2023-04-25T20:46:17;99894.09;;;10.03;74.81
50364;BME280;36272;59.400;17.982;2023-04-25T20:51:19;99896.09;;;9.96;75.09
50364;BME280;36272;59.400;17.982;2023-04-25T20:56:21;99902.72;;;9.93;74.88
50364;BME280;36272;59.400;17.982;2023-04-25T21:01:27;99874.56;;;9.86;75.49
50364;BME280;36272;59.400;17.982;2023-04-25T21:06:29;99882.56;;;9.86;75.26
50364;BME280;36272;59.400;17.982;2023-04-25T21:11:34;99876.28;;;9.80;75.59
50364;BME280;36272;59.400;17.982;2023-04-25T21:16:36;99882.94;;;9.77;75.30
50364;BME280;36272;59.400;17.982;2023-04-25T21:21:42;99880.16;;;9.72;75.36
50364;BME280;36272;59.400;17.982;2023-04-25T21:26:52;99872.50;;;9.64;75.25
50364;BME280;36272;59.400;17.982;2023-04-25T21:31:54;99863.81;;;9.57;75.44
50364;BME280;36272;59.400;17.982;2023-04-25T21:36:57;99875.78;;;9.54;75.64
50364;BME280;36272;59.400;17.982;2023-04-25T21:42:01;99850.34;;;9.51;75.83
50364;BME280;36272;59.400;17.982;2023-04-25T21:47:06;99866.38;;;9.51;76.00
50364;BME280;36272;59.400;17.982;2023-04-25T21:52:08;99863.63;;;9.46;76.10
50364;BME280;36272;59.400;17.982;2023-04-25T21:57:12;99863.53;;;9.41;76.08
50364;BME280;36272;59.400;17.982;2023-04-25T22:02:14;99854.94;;;9.39;76.30
50364;BME280;36272;59.400;17.982;2023-04-25T22:07:16;99858.66;;;9.38;76.06
50364;BME280;36272;59.400;17.982;2023-04-25T22:12:17;99855.88;;;9.33;76.48
50364;BME280;36272;59.400;17.982;2023-04-25T22:17:19;99862.72;;;9.29;76.52
50364;BME280;36272;59.400;17.982;2023-04-25T22:22:27;99859.94;;;9.23;76.51
50364;BME280;36272;59.400;17.982;2023-04-25T22:27:29;99851.59;;;9.20;76.66
50364;BME280;36272;59.400;17.982;2023-04-25T22:32:35;99833.97;;;9.19;77.17
50364;BME280;36272;59.400;17.982;2023-04-25T22:37:39;99838.94;;;9.15;76.87
50364;BME280;36272;59.400;17.982;2023-04-25T22:42:41;99849.03;;;9.13;77.10
50364;BME280;36272;59.400;17.982;2023-04-25T22:47:44;99854.63;;;9.12;77.46
50364;BME280;36272;59.400;17.982;2023-04-25T22:52:54;99824.34;;;9.06;77.26
50364;BME280;36272;59.400;17.982;2023-04-25T22:57:56;99849.88;;;9.02;77.46
50364;BME280;36272;59.400;17.982;2023-04-25T23:02:58;99840.13;;;8.96;77.72
50364;BME280;36272;59.400;17.982;2023-04-25T23:07:59;99842.09;;;8.88;77.70
50364;BME280;36272;59.400;17.982;2023-04-25T23:13:01;99842.31;;;8.87;77.67
50364;BME280;36272;59.400;17.982;2023-04-25T23:18:04;99841.53;;;8.86;77.78
50364;BME280;36272;59.400;17.982;2023-04-25T23:23:05;99856.03;;;8.78;77.80
50364;BME280;36272;59.400;17.982;2023-04-25T23:28:07;99855.31;;;8.71;77.60
50364;BME280;36272;59.400;17.982;2023-04-25T23:33:14;99842.66;;;8.67;78.23
50364;BME280;36272;59.400;17.982;2023-04-25T23:38:16;99859.13;;;8.63;77.61
50364;BME280;36272;59.400;17.982;2023-04-25T23:43:18;99844.41;;;8.61;77.84
50364;BME280;36272;59.400;17.982;2023-04-25T23:48:20;99846.72;;;8.57;77.97
50364;BME280;36272;59.400;17.982;2023-04-25T23:53:21;99851.69;;;8.54;78.06
50364;BME280;36272;59.400;17.982;2023-04-25T23:58:23;99848.22;;;8.53;78.09
